createdAt,value
2023-04-03T00:01:41.305Z,8.85
2023-04-03T00:04:48.113Z,14.60
2023-04-03T00:07:55.014Z,9.03
2023-04-03T00:11:01.032Z,7.97
2023-04-03T00:14:06.498Z,8.65
2023-04-03T00:17:13.339Z,10.43
2023-04-03T00:20:20.685Z,9.05
2023-04-03T00:23:26.101Z,8.85
2023-04-03T00:26:32.449Z,11.43
2023-04-03T00:29:39.044Z,7.28
2023-04-03T00:32:44.570Z,9.08
2023-04-03T00:35:51.044Z,6.30
2023-04-03T00:38:57.378Z,4.92
2023-04-03T00:42:05.421Z,18.70
2023-04-03T00:45:11.873Z,6.95
2023-04-03T00:48:19.912Z,7.50
2023-04-03T00:51:31.817Z,10.28
2023-04-03T00:54:37.017Z,5.95
2023-04-03T00:57:42.943Z,5.53
2023-04-03T01:00:48.723Z,8.13
2023-04-03T01:03:55.164Z,8.48
2023-04-03T01:07:00.973Z,9.20
2023-04-03T01:10:10.938Z,7.25
2023-04-03T01:13:16.796Z,4.80
2023-04-03T01:16:24.598Z,7.08
2023-04-03T01:19:30.707Z,6.50
2023-04-03T01:22:39.655Z,5.22
2023-04-03T01:25:45.405Z,5.62
2023-04-03T01:28:51.368Z,6.03
2023-04-03T01:32:13.556Z,7.67
2023-04-03T01:35:19.491Z,9.93
2023-04-03T01:38:25.686Z,9.18
2023-04-03T01:41:33.875Z,4.53
2023-04-03T01:44:45.936Z,3.87
2023-04-03T01:47:51.559Z,3.80
2023-04-03T01:50:57.991Z,3.55
2023-04-03T01:54:04.802Z,3.77
2023-04-03T01:57:10.424Z,4.60
2023-04-03T02:00:15.073Z,5.00
2023-04-03T02:03:14.379Z,7.03
2023-04-03T02:06:20.621Z,5.75
2023-04-03T02:09:27.447Z,7.03
2023-04-03T02:12:33.168Z,7.78
2023-04-03T02:15:39.831Z,10.13
2023-04-03T02:18:46.596Z,11.53
2023-04-03T02:21:52.010Z,13.62
2023-04-03T02:24:59.590Z,13.25
2023-04-03T02:28:06.281Z,14.83
2023-04-03T02:31:06.648Z,19.05
2023-04-03T02:34:14.057Z,25.80
2023-04-03T02:37:21.372Z,29.40
2023-04-03T02:40:27.237Z,25.27
2023-04-03T02:43:32.021Z,18.75
2023-04-03T02:46:36.975Z,12.88
2023-04-03T02:49:42.226Z,10.15
2023-04-03T02:52:41.178Z,8.10
2023-04-03T02:55:48.220Z,6.92
2023-04-03T02:58:54.949Z,6.08
2023-04-03T03:01:55.279Z,7.03
2023-04-03T03:05:00.821Z,14.78
2023-04-03T03:08:07.256Z,9.25
2023-04-03T03:11:13.270Z,7.87
2023-04-03T03:14:18.828Z,8.43
2023-04-03T03:17:24.540Z,8.48
2023-04-03T03:20:30.904Z,10.20
2023-04-03T03:23:30.138Z,12.43
2023-04-03T03:26:35.970Z,14.25
2023-04-03T03:29:42.643Z,19.02
2023-04-03T03:32:48.132Z,16.12
2023-04-03T03:35:53.632Z,20.55
2023-04-03T03:38:59.688Z,18.30
2023-04-03T03:42:05.701Z,17.42
2023-04-03T03:45:11.305Z,16.30
2023-04-03T03:48:16.996Z,13.70
2023-04-03T03:51:22.212Z,15.25
2023-04-03T03:54:29.220Z,16.87
2023-04-03T03:57:36.956Z,15.88
2023-04-03T04:00:42.363Z,15.95
2023-04-03T04:03:49.329Z,13.28
2023-04-03T04:06:56.897Z,14.18
2023-04-03T04:10:03.434Z,18.15
2023-04-03T04:13:08.766Z,16.87
2023-04-03T04:16:14.464Z,13.62
2023-04-03T04:19:20.392Z,11.65
2023-04-03T04:22:26.937Z,12.95
2023-04-03T04:25:25.473Z,13.80
2023-04-03T04:28:19.799Z,13.35
2023-04-03T04:31:28.624Z,12.85
2023-04-03T04:34:35.536Z,16.42
2023-04-03T04:37:42.074Z,13.83
2023-04-03T04:40:48.939Z,11.18
2023-04-03T04:43:55.971Z,9.03
2023-04-03T04:47:01.284Z,8.83
2023-04-03T04:50:07.448Z,10.13
2023-04-03T04:53:14.007Z,12.28
2023-04-03T04:56:18.670Z,9.68
2023-04-03T04:59:25.445Z,9.08
2023-04-03T05:02:31.058Z,8.15
2023-04-03T05:05:38.524Z,6.53
2023-04-03T05:08:46.327Z,7.35
2023-04-03T05:11:52.781Z,8.53
2023-04-03T05:15:00.339Z,10.40
2023-04-03T05:18:06.308Z,10.13
2023-04-03T05:21:12.625Z,9.58
2023-04-03T05:24:19.453Z,10.55
2023-04-03T05:27:27.687Z,13.03
2023-04-03T05:30:33.579Z,14.63
2023-04-03T05:33:41.290Z,16.27
2023-04-03T05:36:49.391Z,16.07
2023-04-03T05:39:54.503Z,17.15
2023-04-03T05:43:01.978Z,15.63
2023-04-03T05:46:09.835Z,15.15
2023-04-03T05:49:09.214Z,18.02
2023-04-03T05:52:15.198Z,17.90
2023-04-03T05:55:22.221Z,18.48
2023-04-03T05:58:29.530Z,18.40
2023-04-03T06:01:35.887Z,17.90
2023-04-03T06:04:41.973Z,9.58
2023-04-03T06:07:47.403Z,5.75
2023-04-03T06:10:47.576Z,4.30
2023-04-03T06:13:53.463Z,3.45
2023-04-03T06:16:59.588Z,3.35
2023-04-03T06:20:05.606Z,3.08
2023-04-03T06:23:10.845Z,3.27
2023-04-03T06:26:16.495Z,3.10
2023-04-03T06:29:22.042Z,3.62
2023-04-03T06:32:27.330Z,3.85
2023-04-03T06:35:34.871Z,4.10
2023-04-03T06:38:41.240Z,3.95
2023-04-03T06:41:46.346Z,4.10
2023-04-03T06:44:55.036Z,4.58
2023-04-03T06:48:01.192Z,4.25
2023-04-03T06:51:08.393Z,3.90
2023-04-03T06:54:07.629Z,4.35
2023-04-03T06:57:13.623Z,3.80
2023-04-03T07:00:19.358Z,3.60
2023-04-03T07:03:27.365Z,4.10
2023-04-03T07:06:41.278Z,4.67
2023-04-03T07:09:48.128Z,4.78
2023-04-03T07:12:53.615Z,5.20
2023-04-03T07:15:59.757Z,5.75
2023-04-03T07:19:05.868Z,5.08
2023-04-03T07:22:11.901Z,6.97
2023-04-03T07:25:11.894Z,7.30
2023-04-03T07:28:18.132Z,7.67
2023-04-03T07:31:27.100Z,7.22
2023-04-03T07:34:33.223Z,6.90
2023-04-03T07:37:40.154Z,6.95
2023-04-03T07:40:46.657Z,7.00
2023-04-03T07:43:52.347Z,6.53
2023-04-03T07:46:58.157Z,5.50
2023-04-03T07:50:04.739Z,5.55
2023-04-03T07:53:11.460Z,5.35
2023-04-03T07:56:16.994Z,5.67
2023-04-03T07:59:22.820Z,5.92
2023-04-03T08:02:28.105Z,4.80
2023-04-03T08:05:35.494Z,5.15
2023-04-03T08:08:43.741Z,4.72
2023-04-03T08:11:48.209Z,4.60
2023-04-03T08:14:47.302Z,3.67
2023-04-03T08:17:53.578Z,3.30
2023-04-03T08:20:59.451Z,2.77
2023-04-03T08:24:05.009Z,2.60
2023-04-03T08:27:09.641Z,2.42
2023-04-03T08:30:14.312Z,2.22
2023-04-03T08:33:20.380Z,2.10
2023-04-03T08:36:34.599Z,1.77
2023-04-03T08:39:39.731Z,1.70
2023-04-03T08:43:36.934Z,1.80
2023-04-03T08:46:57.480Z,1.10
2023-04-03T08:50:15.412Z,1.70
2023-04-03T08:53:21.719Z,1.92
2023-04-03T08:56:27.074Z,1.72
2023-04-03T08:59:37.508Z,1.42
2023-04-03T09:02:50.413Z,1.45
2023-04-03T09:06:20.984Z,1.57
2023-04-03T09:09:48.268Z,1.40
2023-04-03T09:12:59.996Z,1.15
2023-04-03T09:16:06.455Z,1.37
2023-04-03T09:19:38.103Z,1.37
2023-04-03T09:22:52.038Z,1.35
2023-04-03T09:25:49.010Z,1.70
2023-04-03T09:28:57.021Z,2.30
2023-04-03T09:32:03.575Z,3.20
2023-04-03T09:35:20.717Z,3.05
2023-04-03T09:38:27.118Z,2.72
2023-04-03T09:41:33.490Z,4.17
2023-04-03T09:44:34.096Z,3.67
2023-04-03T09:47:52.017Z,4.00
2023-04-03T09:51:17.070Z,4.60
2023-04-03T09:54:48.824Z,4.85
2023-04-03T09:57:56.952Z,5.25
2023-04-03T10:01:11.448Z,4.97
2023-04-03T10:04:33.630Z,4.33
2023-04-03T10:08:01.780Z,4.42
2023-04-03T10:11:02.593Z,3.47
2023-04-03T10:14:17.290Z,3.00
2023-04-03T10:17:35.260Z,3.70
2023-04-03T10:20:54.318Z,3.77
2023-04-03T10:24:05.182Z,4.53
2023-04-03T10:27:27.798Z,5.37
2023-04-03T10:30:43.667Z,5.22
2023-04-03T10:34:07.436Z,6.42
2023-04-03T10:37:36.395Z,7.22
2023-04-03T10:41:17.655Z,7.67
2023-04-03T10:44:53.585Z,7.28
2023-04-03T10:48:44.021Z,6.92
2023-04-03T10:52:12.389Z,6.75
2023-04-03T10:55:42.451Z,7.42
2023-04-03T10:58:56.337Z,7.70
2023-04-03T11:02:08.649Z,8.00
2023-04-03T11:05:34.090Z,7.95
2023-04-03T11:09:16.562Z,8.15
2023-04-03T11:12:51.228Z,9.40
2023-04-03T11:15:57.069Z,11.20
2023-04-03T11:19:19.496Z,11.93
2023-04-03T11:22:34.742Z,12.25
2023-04-03T11:25:42.970Z,13.45
2023-04-03T11:28:52.378Z,14.63
2023-04-03T11:32:19.458Z,16.15
2023-04-03T11:35:27.422Z,15.63
2023-04-03T11:38:50.230Z,17.10
2023-04-03T11:42:06.836Z,15.75
2023-04-03T11:44:56.823Z,15.18
2023-04-03T11:48:24.817Z,16.37
2023-04-03T11:51:45.872Z,17.75
2023-04-03T11:55:02.280Z,15.98
2023-04-03T11:58:20.770Z,17.87
2023-04-03T12:01:27.224Z,20.43
2023-04-03T12:04:34.884Z,21.62
2023-04-03T12:07:40.760Z,21.70
2023-04-03T12:10:47.468Z,23.12
2023-04-03T12:13:56.543Z,23.90
2023-04-03T12:17:04.502Z,23.10
2023-04-03T12:20:11.776Z,23.00
2023-04-03T12:23:51.460Z,22.05
2023-04-03T12:27:14.080Z,23.62
2023-04-03T12:30:34.001Z,25.15
2023-04-03T12:34:02.542Z,24.72
2023-04-03T12:37:24.302Z,22.48
2023-04-03T12:41:13.220Z,18.35
2023-04-03T12:44:57.214Z,18.20
2023-04-03T12:48:06.426Z,15.18
2023-04-03T12:51:11.673Z,12.80
2023-04-03T12:54:30.633Z,15.10
2023-04-03T12:57:42.962Z,15.18
2023-04-03T13:00:50.113Z,15.95
2023-04-03T13:03:59.761Z,15.43
2023-04-03T13:07:06.458Z,15.48
2023-04-03T13:10:18.688Z,13.60
2023-04-03T13:13:26.033Z,13.72
2023-04-03T13:16:32.516Z,13.20
2023-04-03T13:19:39.995Z,11.63
2023-04-03T13:22:50.715Z,11.00
2023-04-03T13:25:58.688Z,11.97
2023-04-03T13:29:03.944Z,9.88
2023-04-03T13:32:10.365Z,9.53
2023-04-03T13:35:18.626Z,9.35
2023-04-03T13:38:40.900Z,10.35
2023-04-03T13:41:46.744Z,10.00
2023-04-03T13:44:53.594Z,10.00
2023-04-03T13:48:00.769Z,10.95
2023-04-03T13:51:16.507Z,10.43
2023-04-03T13:54:38.026Z,11.08
2023-04-03T13:57:44.840Z,11.60
2023-04-03T14:01:02.907Z,9.70
2023-04-03T14:07:20.473Z,10.05
2023-04-03T14:10:26.609Z,9.38
2023-04-03T14:13:33.114Z,8.85
2023-04-03T14:16:42.017Z,8.90
2023-04-03T14:19:49.799Z,7.78
2023-04-03T14:22:56.654Z,8.70
2023-04-03T14:29:28.612Z,9.08
2023-04-03T14:32:35.497Z,9.80
2023-04-03T14:35:41.879Z,9.73
2023-04-03T14:38:46.768Z,10.55
2023-04-03T14:41:53.465Z,10.88
2023-04-03T14:44:59.252Z,9.95
2023-04-03T14:48:07.929Z,10.82
2023-04-03T14:51:13.587Z,10.32
2023-04-03T14:54:21.115Z,10.72
2023-04-03T14:57:27.735Z,10.70
2023-04-03T15:00:35.416Z,10.05
2023-04-03T15:03:41.284Z,10.18
2023-04-03T15:06:49.922Z,10.70
2023-04-03T15:09:56.082Z,10.80
2023-04-03T15:13:03.715Z,9.40
2023-04-03T15:16:11.385Z,11.55
2023-04-03T15:19:18.098Z,11.20
2023-04-03T15:22:32.982Z,11.33
2023-04-03T15:25:40.061Z,11.75
2023-04-03T15:28:44.500Z,11.63
2023-04-03T15:31:50.459Z,11.85
2023-04-03T15:34:56.756Z,11.80
2023-04-03T15:38:03.046Z,11.55
2023-04-03T15:41:09.351Z,12.63
2023-04-03T15:44:14.064Z,14.78
2023-04-03T15:47:19.420Z,15.78
2023-04-03T15:50:25.094Z,17.40
2023-04-03T15:53:31.074Z,17.60
2023-04-03T15:56:37.879Z,18.90
2023-04-03T15:59:37.985Z,17.67
2023-04-03T16:02:43.742Z,18.98
2023-04-03T16:05:49.724Z,18.45
2023-04-03T16:08:56.318Z,18.92
2023-04-03T16:12:03.949Z,17.00
2023-04-03T16:15:11.022Z,16.57
2023-04-03T16:18:17.796Z,16.48
2023-04-03T16:21:23.758Z,16.77
2023-04-03T16:24:29.491Z,17.48
2023-04-03T16:27:37.417Z,17.75
2023-04-03T16:30:42.843Z,17.52
2023-04-03T16:33:48.315Z,17.27
2023-04-03T16:36:54.658Z,18.50
2023-04-03T16:40:01.219Z,18.17
2023-04-03T16:43:06.953Z,17.50
2023-04-03T16:46:13.019Z,19.32
2023-04-03T16:49:18.085Z,19.40
2023-04-03T16:52:24.879Z,20.20
2023-04-03T16:55:30.966Z,20.17
2023-04-03T16:58:36.400Z,20.50
2023-04-03T17:01:41.715Z,19.67
2023-04-03T17:04:47.060Z,19.73
2023-04-03T17:07:52.866Z,20.05
2023-04-03T17:11:00.975Z,20.62
2023-04-03T17:14:07.409Z,20.52
2023-04-03T17:17:12.947Z,23.10
2023-04-03T17:20:18.977Z,24.18
2023-04-03T17:23:25.692Z,23.35
2023-04-03T17:26:31.383Z,22.80
2023-04-03T17:29:37.012Z,24.18
2023-04-03T17:32:43.325Z,22.45
2023-04-03T17:35:49.760Z,20.20
2023-04-03T17:38:56.029Z,19.73
2023-04-03T17:42:02.714Z,20.37
2023-04-03T17:45:09.691Z,21.45
2023-04-03T17:48:15.852Z,20.90
2023-04-03T17:51:27.744Z,20.92
2023-04-03T17:54:33.421Z,20.65
2023-04-03T17:57:39.376Z,20.15
2023-04-03T18:00:44.818Z,19.95
2023-04-03T18:03:50.693Z,20.35
2023-04-03T18:07:02.168Z,20.32
2023-04-03T18:13:15.960Z,20.45
2023-04-03T18:16:24.477Z,19.45
2023-04-03T18:19:30.230Z,20.70
2023-04-03T18:22:36.435Z,20.60
2023-04-03T18:25:41.475Z,21.02
2023-04-03T18:28:48.505Z,22.87
2023-04-03T18:31:56.353Z,23.98
2023-04-03T18:35:01.866Z,22.62
2023-04-03T18:38:08.045Z,25.30
2023-04-03T18:41:14.701Z,23.73
2023-04-03T18:44:22.124Z,25.75
2023-04-03T18:47:27.960Z,23.95
2023-04-03T18:50:33.085Z,23.52
2023-04-03T18:56:46.996Z,25.45
2023-04-03T18:59:53.653Z,23.50
2023-04-03T19:03:00.973Z,24.37
2023-04-03T19:05:59.401Z,24.37
2023-04-03T19:08:52.282Z,24.90
2023-04-03T19:11:57.278Z,23.07
2023-04-03T19:18:11.113Z,25.17
2023-04-03T19:21:19.014Z,22.87
2023-04-03T19:24:26.717Z,22.50
2023-04-03T19:27:33.236Z,22.58
2023-04-03T19:30:40.366Z,23.42
2023-04-03T19:33:48.487Z,24.37
2023-04-03T19:36:57.432Z,23.38
2023-04-03T19:40:03.884Z,24.63
2023-04-03T19:43:10.832Z,25.27
2023-04-03T19:46:16.441Z,24.72
2023-04-03T19:49:21.664Z,25.92
2023-04-03T19:52:19.616Z,26.15
2023-04-03T19:55:25.132Z,25.90
2023-04-03T19:58:31.711Z,27.00
2023-04-03T20:01:37.627Z,27.50
2023-04-03T20:04:44.843Z,26.27
2023-04-03T20:07:51.323Z,27.58
2023-04-03T20:10:58.100Z,27.15
2023-04-03T20:14:05.759Z,27.60
2023-04-03T20:17:11.449Z,27.45
2023-04-03T20:20:17.173Z,29.15
2023-04-03T20:23:23.393Z,27.73
2023-04-03T20:26:35.109Z,28.85
2023-04-03T20:29:41.921Z,28.35
2023-04-03T20:32:48.790Z,28.57
2023-04-03T20:35:54.968Z,29.48
2023-04-03T20:39:02.829Z,29.95
2023-04-03T20:42:10.313Z,29.52
2023-04-03T20:45:15.950Z,27.48
2023-04-03T20:48:23.637Z,25.05
2023-04-03T20:51:31.847Z,25.88
2023-04-03T20:54:38.354Z,26.62
2023-04-03T20:57:44.407Z,26.68
2023-04-03T21:00:51.271Z,25.02
2023-04-03T21:03:58.109Z,25.17
2023-04-03T21:07:59.822Z,25.50
2023-04-03T21:11:54.316Z,25.12
2023-04-03T21:16:06.867Z,24.30
2023-04-03T21:19:34.472Z,26.60
2023-04-03T21:22:40.370Z,25.75
2023-04-03T21:25:46.331Z,27.45
2023-04-03T21:28:52.173Z,28.27
2023-04-03T21:32:12.196Z,28.65
2023-04-03T21:38:22.600Z,26.23
2023-04-03T21:41:29.362Z,26.37
2023-04-03T21:44:35.540Z,23.98
2023-04-03T21:47:42.614Z,24.35
2023-04-03T21:50:48.517Z,25.57
2023-04-03T21:53:54.541Z,24.55
2023-04-03T21:57:00.439Z,24.47
2023-04-03T22:00:05.992Z,25.68
2023-04-03T22:03:12.113Z,27.02
2023-04-03T22:06:20.230Z,27.85
2023-04-03T22:09:27.150Z,23.73
2023-04-03T22:12:34.505Z,25.62
2023-04-03T22:15:40.506Z,24.75
2023-04-03T22:18:47.728Z,25.55
2023-04-03T22:21:54.515Z,25.20
2023-04-03T22:25:00.316Z,25.20
2023-04-03T22:28:07.254Z,26.42
2023-04-03T22:31:21.394Z,26.97
2023-04-03T22:34:28.357Z,26.40
2023-04-03T22:37:34.115Z,24.40
2023-04-03T22:40:41.422Z,24.60
2023-04-03T22:43:48.983Z,24.80
2023-04-03T22:46:57.769Z,24.75
2023-04-03T22:50:04.146Z,22.87
2023-04-03T22:53:09.521Z,23.52
2023-04-03T22:56:16.905Z,23.27
2023-04-03T22:59:23.326Z,22.98
2023-04-03T23:02:30.466Z,24.32
2023-04-03T23:05:35.661Z,23.67
2023-04-03T23:08:48.807Z,22.70
2023-04-03T23:11:54.012Z,23.55
2023-04-03T23:14:59.001Z,21.60
2023-04-03T23:18:05.687Z,22.05
2023-04-03T23:21:14.187Z,20.52
2023-04-03T23:24:20.253Z,20.57
2023-04-03T23:27:27.612Z,18.90
2023-04-03T23:30:33.040Z,21.00
2023-04-03T23:33:40.442Z,19.60
2023-04-03T23:36:46.558Z,20.88
2023-04-03T23:39:52.371Z,18.75
2023-04-03T23:42:58.998Z,20.65
2023-04-03T23:46:05.351Z,20.32
2023-04-03T23:49:12.210Z,20.57
2023-04-03T23:52:17.683Z,21.33
2023-04-03T23:55:23.787Z,23.12
2023-04-03T23:58:28.972Z,22.22
